createdAt,value
2019-01-04T00:01:20.154Z,101138.75
2019-01-04T00:03:20.809Z,101137.27
2019-01-04T00:05:21.699Z,101132.72
2019-01-04T00:07:22.751Z,101134.25
2019-01-04T00:09:23.476Z,101137.77
2019-01-04T00:11:24.502Z,101132.82
2019-01-04T00:13:26.887Z,101135.79
2019-01-04T00:15:27.549Z,101133.81
2019-01-04T00:17:28.519Z,101128.13
2019-01-04T00:19:29.778Z,101140.19
2019-01-04T00:21:32.598Z,101137.72
2019-01-04T00:23:33.596Z,101133.06
2019-01-04T00:25:40.276Z,101125.89
2019-01-04T00:27:43.063Z,101119.66
2019-01-04T00:29:43.813Z,101108.69
2019-01-04T00:31:47.737Z,101117.78
2019-01-04T00:33:48.550Z,101116.59
2019-01-04T00:35:50.569Z,101116.94
2019-01-04T00:37:52.711Z,101106.45
2019-01-04T00:39:56.024Z,101107.59
2019-01-04T00:41:56.934Z,101111.06
2019-01-04T00:43:57.715Z,101105.02
2019-01-04T00:46:01.385Z,101095.83
2019-01-04T00:48:02.433Z,101106.45
2019-01-04T00:50:06.101Z,101098.99
2019-01-04T00:52:09.281Z,101102.95
2019-01-04T00:54:19.592Z,101092.45
2019-01-04T00:56:27.579Z,101095.14
2019-01-04T00:59:02.626Z,101099.14
2019-01-04T01:01:27.105Z,101100.14
2019-01-04T01:03:49.391Z,101095.53
2019-01-04T01:06:14.218Z,101105.02
2019-01-04T01:08:36.809Z,101107.50
2019-01-04T01:11:13.674Z,101114.62
2019-01-04T01:13:50.311Z,101100.97
2019-01-04T01:16:02.072Z,101096.08
2019-01-04T01:18:19.281Z,101097.85
2019-01-04T01:20:48.650Z,101098.65
2019-01-04T01:23:23.731Z,101102.01
2019-01-04T01:25:48.212Z,101110.21
2019-01-04T01:27:56.554Z,101113.67
2019-01-04T01:30:24.188Z,101108.77
2019-01-04T01:32:39.653Z,101113.53
2019-01-04T01:35:02.386Z,101113.83
2019-01-04T01:37:45.019Z,101112.48
2019-01-04T01:40:10.276Z,101110.35
2019-01-04T01:42:48.412Z,101109.75
2019-01-04T01:44:59.639Z,101122.93
2019-01-04T01:47:10.017Z,101128.96
2019-01-04T01:49:14.870Z,101125.05
2019-01-04T01:51:22.539Z,101129.55
2019-01-04T01:53:28.996Z,101127.77
2019-01-04T01:55:30.061Z,101138.36
2019-01-04T01:57:31.421Z,101135.44
2019-01-04T01:59:34.950Z,101137.22
2019-01-04T02:01:44.222Z,101141.11
2019-01-04T02:04:03.766Z,101140.95
2019-01-04T02:06:19.596Z,101141.42
2019-01-04T02:08:20.402Z,101139.94
2019-01-04T02:10:22.487Z,101137.56
2019-01-04T02:12:23.505Z,101131.03
2019-01-04T02:14:24.315Z,101133.06
2019-01-04T02:16:44.701Z,101136.19
2019-01-04T02:19:04.683Z,101136.08
2019-01-04T02:21:25.579Z,101131.93
2019-01-04T02:23:26.754Z,101137.47
2019-01-04T02:25:27.893Z,101128.07
2019-01-04T02:27:31.834Z,101129.45
2019-01-04T02:29:33.135Z,101126.59
2019-01-04T02:31:33.933Z,101114.42
2019-01-04T02:33:55.606Z,101113.78
2019-01-04T02:36:14.250Z,101105.47
2019-01-04T02:38:33.300Z,101107.99
2019-01-04T02:40:35.974Z,101113.73
2019-01-04T02:42:49.934Z,101118.73
2019-01-04T02:44:55.395Z,101125.88
2019-01-04T02:47:03.532Z,101134.88
2019-01-04T02:49:12.416Z,101136.38
2019-01-04T02:51:14.310Z,101140.34
2019-01-04T02:53:15.242Z,101132.42
2019-01-04T02:55:16.194Z,101127.66
2019-01-04T02:57:18.125Z,101128.93
2019-01-04T02:59:22.275Z,101129.66
2019-01-04T03:01:31.447Z,101129.35
2019-01-04T03:03:34.488Z,101122.52
2019-01-04T03:05:35.779Z,101126.53
2019-01-04T03:07:36.628Z,101123.42
2019-01-04T03:09:38.354Z,101123.97
2019-01-04T03:11:39.357Z,101127.67
2019-01-04T03:13:40.280Z,101129.39
2019-01-04T03:15:40.978Z,101125.37
2019-01-04T03:17:41.773Z,101130.95
2019-01-04T03:19:53.839Z,101127.42
2019-01-04T03:21:54.775Z,101137.84
2019-01-04T03:23:55.492Z,101131.66
2019-01-04T03:25:56.325Z,101133.83
2019-01-04T03:27:58.859Z,101133.98
2019-01-04T03:30:05.275Z,101131.73
2019-01-04T03:32:04.212Z,101131.50
2019-01-04T03:36:37.387Z,101116.09
2019-01-04T03:38:39.622Z,101113.39
2019-01-04T03:40:46.256Z,101107.98
2019-01-04T03:42:47.350Z,101101.52
2019-01-04T03:44:48.198Z,101103.58
2019-01-04T03:46:55.470Z,101097.01
2019-01-04T03:48:56.501Z,101099.58
2019-01-04T03:51:27.290Z,101102.39
2019-01-04T03:53:13.940Z,101114.42
2019-01-04T03:55:17.572Z,101114.63
2019-01-04T03:57:22.709Z,101113.33
2019-01-04T03:59:34.439Z,101120.19
2019-01-04T04:01:41.362Z,101120.83
2019-01-04T04:06:22.180Z,101116.14
2019-01-04T04:08:29.428Z,101111.50
2019-01-04T04:10:30.228Z,101111.06
2019-01-04T04:12:31.013Z,101100.72
2019-01-04T04:14:31.738Z,101113.33
2019-01-04T04:16:35.914Z,101112.74
2019-01-04T04:21:06.116Z,101115.51
2019-01-04T04:23:17.157Z,101125.11
2019-01-04T04:25:27.055Z,101131.34
2019-01-04T04:27:40.670Z,101129.20
2019-01-04T04:29:40.589Z,101131.11
2019-01-04T04:31:43.294Z,101136.05
2019-01-04T04:33:44.023Z,101132.73
2019-01-04T04:35:45.141Z,101126.02
2019-01-04T04:37:46.113Z,101127.57
2019-01-04T04:39:46.717Z,101122.52
2019-01-04T04:41:48.781Z,101126.98
2019-01-04T04:43:49.860Z,101118.40
2019-01-04T04:45:50.582Z,101117.50
2019-01-04T04:47:51.452Z,101120.23
2019-01-04T04:49:52.392Z,101120.52
2019-01-04T04:51:56.182Z,101123.80
2019-01-04T04:53:57.156Z,101126.77
2019-01-04T04:55:58.933Z,101125.69
2019-01-04T04:57:59.749Z,101116.66
2019-01-04T05:00:00.618Z,101122.39
2019-01-04T05:02:01.415Z,101113.70
2019-01-04T05:04:02.116Z,101108.84
2019-01-04T05:06:02.843Z,101113.41
2019-01-04T05:08:03.647Z,101092.17
2019-01-04T05:10:04.436Z,101109.81
2019-01-04T05:12:05.283Z,101116.11
2019-01-04T05:14:06.104Z,101111.88
2019-01-04T05:16:06.838Z,101114.25
2019-01-04T05:18:07.774Z,101109.49
2019-01-04T05:20:08.502Z,101107.31
2019-01-04T05:22:09.230Z,101103.98
2019-01-04T05:24:10.101Z,101097.95
2019-01-04T05:26:11.777Z,101101.91
2019-01-04T05:28:12.491Z,101102.97
2019-01-04T05:30:13.647Z,101097.54
2019-01-04T05:32:14.518Z,101093.93
2019-01-04T05:34:15.410Z,101099.22
2019-01-04T05:36:16.394Z,101090.94
2019-01-04T05:38:17.184Z,101085.89
2019-01-04T05:40:18.701Z,101085.89
2019-01-04T05:42:19.829Z,101090.87
2019-01-04T05:44:25.592Z,101089.86
2019-01-04T05:46:26.547Z,101079.25
2019-01-04T05:48:27.341Z,101081.14
2019-01-04T05:50:28.264Z,101072.05
2019-01-04T05:52:29.043Z,101071.41
2019-01-04T05:54:30.080Z,101078.38
2019-01-04T05:56:32.132Z,101077.75
2019-01-04T05:58:33.127Z,101076.44
2019-01-04T06:00:34.026Z,101079.58
2019-01-04T06:02:34.955Z,101079.07
2019-01-04T06:04:35.747Z,101081.86
2019-01-04T06:06:36.784Z,101081.14
2019-01-04T06:08:37.563Z,101076.19
2019-01-04T06:10:40.313Z,101079.39
2019-01-04T06:12:50.298Z,101079.70
2019-01-04T06:16:42.903Z,101078.65
2019-01-04T06:17:03.162Z,101085.19
2019-01-04T06:24:13.658Z,101094.59
2019-01-04T06:26:14.771Z,101097.49
2019-01-04T06:28:15.516Z,101101.55
2019-01-04T06:30:16.707Z,101100.98
2019-01-04T06:32:17.499Z,101095.83
2019-01-04T06:34:18.240Z,101094.44
2019-01-04T06:36:19.034Z,101088.88
2019-01-04T06:38:20.181Z,101089.84
2019-01-04T06:40:22.250Z,101086.42
2019-01-04T06:42:22.990Z,101083.63
2019-01-04T06:44:24.060Z,101077.30
2019-01-04T06:46:25.142Z,101082.16
2019-01-04T06:48:26.301Z,101076.66
2019-01-04T06:50:27.433Z,101083.52
2019-01-04T06:52:30.363Z,101088.36
2019-01-04T06:55:12.591Z,101089.51
2019-01-04T06:57:13.633Z,101088.97
2019-01-04T06:59:14.555Z,101092.73
2019-01-04T07:01:16.466Z,101098.61
2019-01-04T07:03:17.334Z,101099.76
2019-01-04T07:05:18.065Z,101100.91
2019-01-04T07:07:18.667Z,101104.98
2019-01-04T07:09:19.435Z,101101.05
2019-01-04T07:11:20.248Z,101099.76
2019-01-04T07:13:20.997Z,101102.64
2019-01-04T07:15:21.837Z,101107.79
2019-01-04T07:17:23.690Z,101102.97
2019-01-04T07:19:24.498Z,101102.80
2019-01-04T07:21:25.340Z,101097.25
2019-01-04T07:23:26.015Z,101091.55
2019-01-04T07:25:26.769Z,101086.15
2019-01-04T07:27:27.426Z,101085.39
2019-01-04T07:29:28.283Z,101086.83
2019-01-04T07:31:45.941Z,101096.60
2019-01-04T07:33:46.608Z,101101.80
2019-01-04T07:35:49.535Z,101102.70
2019-01-04T07:37:50.401Z,101093.61
2019-01-04T07:39:51.532Z,101090.92
2019-01-04T07:41:52.266Z,101099.78
2019-01-04T07:43:54.081Z,101106.61
2019-01-04T07:45:54.870Z,101111.84
2019-01-04T07:47:55.623Z,101118.19
2019-01-04T07:49:56.746Z,101127.03
2019-01-04T07:51:57.556Z,101126.34
2019-01-04T07:53:58.355Z,101126.97
2019-01-04T07:56:00.597Z,101120.44
2019-01-04T07:58:01.727Z,101125.86
2019-01-04T08:00:09.275Z,101118.69
2019-01-04T08:02:29.403Z,101111.20
2019-01-04T08:04:30.293Z,101113.91
2019-01-04T08:06:31.253Z,101112.31
2019-01-04T08:08:32.191Z,101117.42
2019-01-04T08:10:33.241Z,101120.01
2019-01-04T08:12:34.060Z,101115.11
2019-01-04T08:14:34.830Z,101119.16
2019-01-04T08:16:35.938Z,101113.56
2019-01-04T08:18:36.903Z,101114.20
2019-01-04T08:20:37.667Z,101132.13
2019-01-04T08:22:38.733Z,101132.11
2019-01-04T08:24:39.584Z,101131.95
2019-01-04T08:26:40.345Z,101135.70
2019-01-04T08:28:41.076Z,101130.11
2019-01-04T08:30:42.062Z,101135.77
2019-01-04T08:32:44.655Z,101131.48
2019-01-04T08:34:45.889Z,101128.45
2019-01-04T08:36:46.937Z,101131.78
2019-01-04T08:38:48.000Z,101129.70
2019-01-04T08:40:49.264Z,101134.50
2019-01-04T08:42:50.378Z,101129.64
2019-01-04T08:44:57.022Z,101136.62
2019-01-04T08:46:58.479Z,101128.72
2019-01-04T08:49:06.180Z,101132.77
2019-01-04T08:51:02.460Z,101142.25
2019-01-04T08:53:06.352Z,101144.25
2019-01-04T08:55:07.718Z,101138.09
2019-01-04T08:57:08.392Z,101137.48
2019-01-04T08:59:27.835Z,101131.11
2019-01-04T09:01:24.474Z,101133.62
2019-01-04T09:03:25.536Z,101136.20
2019-01-04T09:05:26.477Z,101125.52
2019-01-04T09:07:27.740Z,101122.33
2019-01-04T09:09:29.205Z,101122.44
2019-01-04T09:11:32.237Z,101115.40
2019-01-04T09:13:37.222Z,101110.92
2019-01-04T09:15:35.532Z,101115.45
2019-01-04T09:17:36.271Z,101110.47
2019-01-04T09:19:41.462Z,101099.89
2019-01-04T09:21:42.289Z,101101.29
2019-01-04T09:23:57.309Z,101099.78
2019-01-04T09:25:59.661Z,101094.69
2019-01-04T09:28:09.614Z,101094.23
2019-01-04T09:30:11.941Z,101100.51
2019-01-04T09:32:18.751Z,101101.13
2019-01-04T09:34:27.436Z,101096.20
2019-01-04T09:36:28.296Z,101095.56
2019-01-04T09:38:40.195Z,101094.54
2019-01-04T09:40:37.921Z,101093.59
2019-01-04T09:42:41.773Z,101096.84
2019-01-04T09:44:56.835Z,101091.92
2019-01-04T09:46:47.435Z,101088.83
2019-01-04T09:48:54.442Z,101080.20
2019-01-04T09:51:00.857Z,101080.94
2019-01-04T09:53:02.376Z,101065.41
2019-01-04T09:55:04.268Z,101072.70
2019-01-04T09:57:07.279Z,101058.54
2019-01-04T09:59:10.697Z,101053.20
2019-01-04T10:01:11.366Z,101050.83
2019-01-04T10:03:12.055Z,101048.86
2019-01-04T10:05:13.025Z,101049.19
2019-01-04T10:07:13.897Z,101040.77
2019-01-04T10:09:14.937Z,101038.91
2019-01-04T10:11:15.737Z,101044.06
2019-01-04T10:13:16.478Z,101032.97
2019-01-04T10:15:17.284Z,101029.53
2019-01-04T10:17:18.154Z,101024.41
2019-01-04T10:19:19.243Z,101031.26
2019-01-04T10:21:19.924Z,101019.98
2019-01-04T10:23:37.233Z,101016.26
2019-01-04T10:25:49.000Z,101018.69
2019-01-04T10:27:49.957Z,101013.13
2019-01-04T10:29:55.385Z,101004.80
2019-01-04T10:31:56.510Z,101010.34
2019-01-04T10:33:58.410Z,100999.27
2019-01-04T10:36:06.948Z,101001.98
2019-01-04T10:38:14.548Z,100994.21
2019-01-04T10:40:15.645Z,100997.13
2019-01-04T10:42:18.556Z,100988.59
2019-01-04T10:44:24.808Z,100993.23
2019-01-04T10:46:31.142Z,100986.73
2019-01-04T10:48:30.493Z,100981.99
2019-01-04T10:50:30.778Z,100970.14
2019-01-04T10:52:31.820Z,100971.71
2019-01-04T10:54:32.670Z,100969.64
2019-01-04T10:56:33.841Z,100970.03
2019-01-04T10:58:43.821Z,100965.20
2019-01-04T11:00:44.870Z,100963.72
2019-01-04T11:03:55.056Z,100958.24
2019-01-04T11:04:54.762Z,100951.21
2019-01-04T11:06:55.863Z,100949.47
2019-01-04T11:08:56.916Z,100947.98
2019-01-04T11:10:58.039Z,100944.25
2019-01-04T11:12:58.742Z,100946.89
2019-01-04T11:14:59.697Z,100948.11
2019-01-04T11:17:01.608Z,100944.88
2019-01-04T11:19:05.893Z,100936.61
2019-01-04T11:21:25.947Z,100926.05
2019-01-04T11:23:35.479Z,100931.39
2019-01-04T11:25:57.751Z,100935.13
2019-01-04T11:28:08.270Z,100924.98
2019-01-04T11:30:18.509Z,100925.03
2019-01-04T11:32:26.303Z,100917.50
2019-01-04T11:34:35.004Z,100915.96
2019-01-04T11:36:50.701Z,100907.58
2019-01-04T11:39:04.662Z,100905.98
2019-01-04T11:41:32.496Z,100898.40
2019-01-04T11:44:02.571Z,100904.02
2019-01-04T11:46:32.234Z,100893.80
2019-01-04T11:48:48.516Z,100904.33
2019-01-04T11:50:56.167Z,100896.75
2019-01-04T11:52:59.230Z,100897.25
2019-01-04T11:55:07.586Z,100894.52
2019-01-04T11:57:10.631Z,100886.68
2019-01-04T12:01:41.333Z,100888.30
2019-01-04T12:03:45.996Z,100885.19
2019-01-04T12:05:47.169Z,100882.68
2019-01-04T12:08:14.696Z,100875.11
2019-01-04T12:10:19.022Z,100877.23
2019-01-04T12:12:22.266Z,100863.53
2019-01-04T12:14:23.371Z,100867.92
2019-01-04T12:16:24.396Z,100872.81
2019-01-04T12:18:25.483Z,100876.05
2019-01-04T12:20:26.643Z,100864.16
2019-01-04T12:22:27.351Z,100870.27
2019-01-04T12:24:28.352Z,100869.08
2019-01-04T12:26:29.333Z,100867.79
2019-01-04T12:28:31.153Z,100863.78
2019-01-04T12:30:32.161Z,100871.59
2019-01-04T12:32:33.043Z,100867.72
2019-01-04T12:34:35.849Z,100860.33
2019-01-04T12:36:36.720Z,100858.41
2019-01-04T12:38:37.454Z,100858.30
2019-01-04T12:40:38.143Z,100862.31
2019-01-04T12:42:38.953Z,100849.02
2019-01-04T12:44:39.655Z,100855.09
2019-01-04T12:46:40.318Z,100864.19
2019-01-04T12:48:41.473Z,100865.41
2019-01-04T12:50:42.328Z,100870.68
2019-01-04T12:52:44.493Z,100874.00
2019-01-04T12:54:45.207Z,100863.39
2019-01-04T12:56:45.918Z,100863.81
2019-01-04T12:58:47.527Z,100855.09
2019-01-04T13:00:48.523Z,100855.02
2019-01-04T13:02:49.335Z,100860.42
2019-01-04T13:04:50.189Z,100856.24
2019-01-04T13:06:51.226Z,100848.25
2019-01-04T13:08:52.009Z,100851.81
2019-01-04T13:10:52.658Z,100847.45
2019-01-04T13:12:53.560Z,100847.25
2019-01-04T13:14:54.332Z,100834.55
2019-01-04T13:16:55.090Z,100824.76
2019-01-04T13:18:55.883Z,100828.03
2019-01-04T13:20:56.545Z,100815.52
2019-01-04T13:22:58.891Z,100815.62
2019-01-04T13:24:59.831Z,100815.20
2019-01-04T13:27:03.077Z,100807.03
2019-01-04T13:29:04.079Z,100804.08
2019-01-04T13:31:05.041Z,100789.59
2019-01-04T13:33:05.801Z,100786.70
2019-01-04T13:35:07.872Z,100794.28
2019-01-04T13:37:08.511Z,100797.45
2019-01-04T13:39:09.346Z,100788.06
2019-01-04T13:41:11.332Z,100792.53
2019-01-04T13:43:12.131Z,100794.66
2019-01-04T13:45:13.038Z,100786.98
2019-01-04T13:47:13.827Z,100795.50
2019-01-04T13:49:16.767Z,100784.05
2019-01-04T13:51:17.537Z,100777.89
2019-01-04T13:53:19.159Z,100766.52
2019-01-04T13:55:20.985Z,100760.06
2019-01-04T13:57:21.706Z,100755.42
2019-01-04T13:59:22.494Z,100751.57
2019-01-04T14:01:23.278Z,100752.27
2019-01-04T14:05:50.132Z,100752.98
2019-01-04T14:07:52.848Z,100745.77
2019-01-04T14:09:53.628Z,100735.91
2019-01-04T14:11:54.387Z,100725.38
2019-01-04T14:13:55.337Z,100723.03
2019-01-04T14:15:56.102Z,100725.62
2019-01-04T14:17:57.977Z,100723.38
2019-01-04T14:19:58.753Z,100727.89
2019-01-04T14:21:59.564Z,100719.69
2019-01-04T14:24:00.621Z,100710.84
2019-01-04T14:26:01.500Z,100721.26
2019-01-04T14:28:02.610Z,100715.79
2019-01-04T14:30:07.315Z,100723.31
2019-01-04T14:32:08.576Z,100717.09
2019-01-04T14:34:09.237Z,100720.50
2019-01-04T14:36:09.977Z,100707.06
2019-01-04T14:38:10.755Z,100710.41
2019-01-04T14:40:11.505Z,100708.28
2019-01-04T14:42:12.143Z,100707.29
2019-01-04T14:44:12.866Z,100696.97
2019-01-04T14:46:13.591Z,100690.28
2019-01-04T14:48:14.567Z,100699.62
2019-01-04T14:50:16.217Z,100702.80
2019-01-04T14:52:16.911Z,100701.44
2019-01-04T14:54:17.904Z,100706.98
2019-01-04T14:56:19.312Z,100706.22
2019-01-04T14:58:20.095Z,100695.81
2019-01-04T15:00:20.916Z,100701.44
2019-01-04T15:02:23.795Z,100707.55
2019-01-04T15:04:24.543Z,100707.14
2019-01-04T15:06:25.297Z,100716.77
2019-01-04T15:08:26.309Z,100708.88
2019-01-04T15:10:27.312Z,100707.36
2019-01-04T15:12:28.404Z,100697.03
2019-01-04T15:14:29.426Z,100691.41
2019-01-04T15:16:30.315Z,100678.43
2019-01-04T15:18:32.486Z,100671.22
2019-01-04T15:20:33.278Z,100660.89
2019-01-04T15:22:34.415Z,100655.55
2019-01-04T15:24:37.740Z,100653.42
2019-01-04T15:26:38.725Z,100647.88
2019-01-04T15:28:40.789Z,100653.15
2019-01-04T15:30:41.511Z,100655.80
2019-01-04T15:32:42.380Z,100659.30
2019-01-04T15:34:43.306Z,100659.61
2019-01-04T15:36:44.070Z,100673.80
2019-01-04T15:38:45.028Z,100671.75
2019-01-04T15:40:46.078Z,100664.39
2019-01-04T15:42:47.001Z,100668.34
2019-01-04T15:44:47.742Z,100666.44
2019-01-04T15:46:48.559Z,100674.03
2019-01-04T15:48:49.297Z,100675.02
2019-01-04T15:50:50.242Z,100679.73
2019-01-04T15:52:51.057Z,100691.64
2019-01-04T15:54:52.007Z,100697.11
2019-01-04T15:56:53.012Z,100703.88
2019-01-04T15:58:53.764Z,100706.45
2019-01-04T16:00:54.809Z,100700.23
2019-01-04T16:02:55.987Z,100712.69
2019-01-04T16:04:56.646Z,100713.52
2019-01-04T16:06:57.510Z,100712.91
2019-01-04T16:08:58.258Z,100716.71
2019-01-04T16:10:58.990Z,100712.45
2019-01-04T16:12:59.745Z,100713.30
2019-01-04T16:15:00.797Z,100707.45
2019-01-04T16:17:01.517Z,100715.72
2019-01-04T16:19:06.169Z,100727.50
2019-01-04T16:21:08.135Z,100727.80
2019-01-04T16:23:15.053Z,100716.71
2019-01-04T16:25:18.833Z,100725.98
2019-01-04T16:27:19.688Z,100717.70
2019-01-04T16:29:20.804Z,100713.91
2019-01-04T16:31:21.897Z,100724.46
2019-01-04T16:33:22.743Z,100717.93
2019-01-04T16:35:23.821Z,100711.39
2019-01-04T16:37:24.788Z,100716.11
2019-01-04T16:39:26.509Z,100716.56
2019-01-04T16:41:27.447Z,100703.50
2019-01-04T16:43:28.373Z,100694.16
2019-01-04T16:45:29.374Z,100701.52
2019-01-04T16:47:32.299Z,100703.57
2019-01-04T16:49:33.274Z,100711.63
2019-01-04T16:51:34.180Z,100716.33
2019-01-04T16:53:34.996Z,100708.44
2019-01-04T16:55:36.938Z,100711.70
2019-01-04T16:57:38.030Z,100701.59
2019-01-04T16:59:39.041Z,100693.92
2019-01-04T17:01:39.831Z,100698.25
2019-01-04T17:03:40.711Z,100692.48
2019-01-04T17:05:41.461Z,100698.56
2019-01-04T17:07:42.453Z,100702.13
2019-01-04T17:09:43.505Z,100694.08
2019-01-04T17:11:44.393Z,100691.58
2019-01-04T17:13:47.188Z,100690.12
2019-01-04T17:15:52.292Z,100694.91
2019-01-04T17:17:53.298Z,100692.33
2019-01-04T17:19:54.734Z,100687.92
2019-01-04T17:21:55.994Z,100681.17
2019-01-04T17:23:56.635Z,100683.52
2019-01-04T17:25:57.667Z,100678.59
2019-01-04T17:28:01.269Z,100682.53
2019-01-04T17:30:05.661Z,100680.48
2019-01-04T17:32:06.467Z,100675.77
2019-01-04T17:34:07.195Z,100677.37
2019-01-04T17:36:08.240Z,100686.03
2019-01-04T17:38:09.201Z,100686.48
2019-01-04T17:40:09.912Z,100681.85
2019-01-04T17:42:10.821Z,100682.61
2019-01-04T17:44:15.687Z,100679.34
2019-01-04T17:46:19.111Z,100672.89
2019-01-04T17:48:20.102Z,100670.16
2019-01-04T17:50:21.077Z,100675.09
2019-01-04T17:52:22.197Z,100676.53
2019-01-04T17:54:24.130Z,100674.56
2019-01-04T17:56:29.615Z,100675.02
2019-01-04T17:58:30.887Z,100665.67
2019-01-04T18:00:36.424Z,100670.16
2019-01-04T18:02:39.925Z,100663.85
2019-01-04T18:04:40.784Z,100663.47
2019-01-04T18:06:49.014Z,100661.27
2019-01-04T18:08:46.056Z,100660.21
2019-01-04T18:10:47.059Z,100664.92
2019-01-04T18:12:47.920Z,100673.88
2019-01-04T18:14:50.250Z,100675.55
2019-01-04T18:16:53.899Z,100674.33
2019-01-04T18:19:08.190Z,100675.77
2019-01-04T18:21:09.232Z,100684.66
2019-01-04T18:23:12.521Z,100694.38
2019-01-04T18:25:13.422Z,100683.59
2019-01-04T18:27:14.502Z,100690.73
2019-01-04T18:29:15.578Z,100690.36
2019-01-04T18:31:17.322Z,100691.65
2019-01-04T18:33:19.415Z,100697.34
2019-01-04T18:35:20.294Z,100697.49
2019-01-04T18:37:21.240Z,100704.33
2019-01-04T18:39:22.061Z,100696.20
2019-01-04T18:41:26.037Z,100688.91
2019-01-04T18:43:26.931Z,100698.48
2019-01-04T18:45:29.898Z,100690.66
2019-01-04T18:47:31.580Z,100685.27
2019-01-04T18:49:32.780Z,100676.38
2019-01-04T18:54:02.797Z,100681.39
2019-01-04T18:56:03.270Z,100684.84
2019-01-04T18:58:33.522Z,100673.88
2019-01-04T19:01:13.778Z,100670.46
2019-01-04T19:03:15.733Z,100657.55
2019-01-04T19:05:18.063Z,100653.80
2019-01-04T19:07:19.980Z,100662.38
2019-01-04T19:09:22.813Z,100661.84
2019-01-04T19:11:25.784Z,100657.14
2019-01-04T19:13:27.059Z,100650.69
2019-01-04T19:15:27.886Z,100662.29
2019-01-04T19:17:29.927Z,100665.94
2019-01-04T19:19:31.018Z,100661.53
2019-01-04T19:21:32.669Z,100655.84
2019-01-04T19:23:42.417Z,100662.67
2019-01-04T19:26:32.976Z,100654.02
2019-01-04T19:36:56.570Z,100659.09
2019-01-04T19:38:57.382Z,100659.09
2019-01-04T19:40:58.333Z,100667.59
2019-01-04T19:42:59.500Z,100658.56
2019-01-04T19:45:00.372Z,100665.55
2019-01-04T19:47:01.273Z,100662.82
2019-01-04T19:49:03.484Z,100664.56
2019-01-04T19:51:04.417Z,100653.94
2019-01-04T19:53:05.312Z,100664.48
2019-01-04T19:55:07.893Z,100670.34
2019-01-04T19:57:22.784Z,100669.95
2019-01-04T19:59:39.055Z,100670.72
2019-01-04T20:01:40.298Z,100658.13
2019-01-04T20:03:44.252Z,100658.50
2019-01-04T20:05:48.928Z,100660.85
2019-01-04T20:08:12.641Z,100662.83
2019-01-04T20:10:48.360Z,100670.05
2019-01-04T20:13:18.881Z,100666.84
2019-01-04T20:15:32.341Z,100674.66
2019-01-04T20:17:35.702Z,100679.15
2019-01-04T20:19:37.432Z,100680.14
2019-01-04T20:21:38.260Z,100669.81
2019-01-04T20:23:39.152Z,100678.16
2019-01-04T20:25:43.712Z,100670.53
2019-01-04T20:27:46.566Z,100661.88
2019-01-04T20:29:49.972Z,100659.11
2019-01-04T20:31:55.287Z,100659.49
2019-01-04T20:33:55.965Z,100659.80
2019-01-04T20:35:56.835Z,100661.92
2019-01-04T20:37:57.909Z,100659.11
2019-01-04T20:40:00.751Z,100656.77
2019-01-04T20:42:01.839Z,100655.62
2019-01-04T20:44:04.723Z,100655.84
2019-01-04T20:46:05.925Z,100653.42
2019-01-04T20:48:08.984Z,100653.42
2019-01-04T20:50:12.015Z,100657.75
2019-01-04T20:52:13.289Z,100641.95
2019-01-04T20:54:14.272Z,100645.45
2019-01-04T20:56:15.081Z,100643.02
2019-01-04T20:58:15.867Z,100643.25
2019-01-04T21:00:18.985Z,100641.20
2019-01-04T21:02:21.728Z,100636.49
2019-01-04T21:04:22.558Z,100646.59
2019-01-04T21:06:23.751Z,100637.48
2019-01-04T21:08:27.928Z,100649.09
2019-01-04T21:10:31.238Z,100648.26
2019-01-04T21:12:32.231Z,100650.91
2019-01-04T21:14:33.261Z,100647.69
2019-01-04T21:16:35.809Z,100650.72
2019-01-04T21:18:37.757Z,100656.77
2019-01-04T21:20:38.452Z,100657.78
2019-01-04T21:22:39.364Z,100661.95
2019-01-04T21:24:41.594Z,100655.88
2019-01-04T21:26:44.675Z,100655.73
2019-01-04T21:28:46.355Z,100658.16
2019-01-04T21:30:47.204Z,100656.72
2019-01-04T21:32:48.124Z,100648.52
2019-01-04T21:34:49.085Z,100650.41
2019-01-04T21:36:51.041Z,100659.98
2019-01-04T21:38:54.738Z,100648.75
2019-01-04T21:40:55.613Z,100656.19
2019-01-04T21:42:56.467Z,100657.94
2019-01-04T21:44:57.249Z,100660.97
2019-01-04T21:46:58.159Z,100651.63
2019-01-04T21:48:58.949Z,100654.52
2019-01-04T21:50:59.861Z,100651.25
2019-01-04T21:53:16.915Z,100648.52
2019-01-04T21:55:17.796Z,100650.19
2019-01-04T21:57:18.642Z,100643.05
2019-01-04T21:59:21.594Z,100648.14
2019-01-04T22:01:22.425Z,100649.43
2019-01-04T22:03:25.368Z,100644.42
2019-01-04T22:05:26.098Z,100645.94
2019-01-04T22:07:27.091Z,100642.52
2019-01-04T22:09:27.823Z,100641.83
2019-01-04T22:11:28.586Z,100630.37
2019-01-04T22:13:29.335Z,100638.12
2019-01-04T22:15:30.238Z,100635.00
2019-01-04T22:17:30.956Z,100627.86
2019-01-04T22:19:31.886Z,100624.73
2019-01-04T22:21:32.534Z,100619.73
2019-01-04T22:23:33.391Z,100624.74
2019-01-04T22:25:34.202Z,100618.37
2019-01-04T22:27:37.739Z,100620.19
2019-01-04T22:29:38.437Z,100618.06
2019-01-04T22:31:39.545Z,100616.31
2019-01-04T22:33:41.460Z,100614.50
2019-01-04T22:35:42.350Z,100619.20
2019-01-04T22:37:43.277Z,100617.59
2019-01-04T22:39:44.349Z,100612.52
2019-01-04T22:41:45.058Z,100605.09
2019-01-04T22:43:45.982Z,100601.75
2019-01-04T22:45:46.675Z,100596.05
2019-01-04T22:48:06.290Z,100597.58
2019-01-04T22:51:23.547Z,100601.38
2019-01-04T22:52:23.096Z,100597.35
2019-01-04T22:54:25.998Z,100597.02
2019-01-04T22:56:27.179Z,100592.34
2019-01-04T22:58:28.173Z,100589.91
2019-01-04T23:00:28.978Z,100592.23
2019-01-04T23:02:30.078Z,100587.98
2019-01-04T23:04:31.842Z,100583.36
2019-01-04T23:06:32.587Z,100584.27
2019-01-04T23:08:34.861Z,100582.45
2019-01-04T23:10:35.941Z,100585.41
2019-01-04T23:12:37.113Z,100587.98
2019-01-04T23:14:39.577Z,100584.57
2019-01-04T23:16:40.410Z,100577.54
2019-01-04T23:18:41.243Z,100575.77
2019-01-04T23:20:42.073Z,100583.05
2019-01-04T23:22:43.056Z,100578.34
2019-01-04T23:27:16.380Z,100584.04
2019-01-04T23:29:17.242Z,100579.34
2019-01-04T23:31:18.506Z,100583.13
2019-01-04T23:33:19.722Z,100576.83
2019-01-04T23:35:20.443Z,100578.66
2019-01-04T23:37:22.657Z,100569.25
2019-01-04T23:39:23.539Z,100574.03
2019-01-04T23:41:24.529Z,100576.23
2019-01-04T23:43:27.493Z,100567.95
2019-01-04T23:45:29.799Z,100568.71
2019-01-04T23:47:30.844Z,100572.13
2019-01-04T23:49:31.951Z,100578.28
2019-01-04T23:51:32.832Z,100574.63
2019-01-04T23:53:33.516Z,100588.75
2019-01-04T23:55:34.354Z,100578.05
2019-01-04T23:57:35.321Z,100572.20
